createdAt,value
2023-04-20T06:20:53.001Z,94716.63
2023-04-20T06:25:30.413Z,94715.81
2023-04-20T06:46:08.741Z,94734.25
2023-04-20T07:04:45.030Z,94739.09
2023-04-20T07:07:11.923Z,94744.25
2023-04-20T07:09:38.827Z,94750.69
2023-04-20T07:12:05.923Z,94752.81
2023-04-20T07:14:32.788Z,94746.34
2023-04-20T07:16:59.807Z,94745.53
2023-04-20T07:19:26.680Z,94744.06
2023-04-20T07:21:53.572Z,94747.47
2023-04-20T07:24:20.567Z,94758.44
2023-04-20T07:26:47.527Z,94744.22
2023-04-20T07:29:14.456Z,94750.63
2023-04-20T07:31:41.414Z,94746.88
2023-04-20T07:34:08.450Z,94729.56
2023-04-20T07:36:35.403Z,94742.81
2023-04-20T07:39:02.335Z,94747.31
2023-04-20T07:41:29.248Z,94740.44
2023-04-20T07:43:56.152Z,94736.53
2023-04-20T07:46:23.846Z,94737.13
2023-04-20T07:48:50.924Z,94737.03
2023-04-20T07:51:17.833Z,94742.88
2023-04-20T07:53:44.879Z,94733.31
2023-04-20T07:56:11.974Z,94732.31
2023-04-20T07:58:41.279Z,94734.00
2023-04-20T08:01:08.407Z,94736.06
2023-04-20T08:03:35.863Z,94729.31
2023-04-20T08:06:03.180Z,94724.59
2023-04-20T08:08:30.572Z,94735.16
2023-04-20T08:10:58.894Z,94731.81
2023-04-20T08:13:26.275Z,94728.25
2023-04-20T08:15:53.371Z,94741.22
2023-04-20T08:18:21.401Z,94739.34
2023-04-20T08:20:49.085Z,94742.44
2023-04-20T08:23:16.072Z,94739.44
2023-04-20T08:25:42.973Z,94742.75
2023-04-20T08:28:19.312Z,94744.03
2023-04-20T08:30:51.603Z,94741.91
2023-04-20T08:33:18.522Z,94742.91
2023-04-20T08:35:45.906Z,94742.75
2023-04-20T08:38:15.864Z,94747.44
2023-04-20T08:40:45.122Z,94744.34
2023-04-20T08:43:12.030Z,94753.09
2023-04-20T08:45:41.320Z,94761.19
2023-04-20T08:48:08.572Z,94751.50
2023-04-20T08:50:37.397Z,94751.88
2023-04-20T08:53:05.125Z,94727.31
2023-04-20T08:55:33.423Z,94745.91
2023-04-20T08:58:00.568Z,94756.34
2023-04-20T09:00:27.533Z,94744.38
2023-04-20T09:02:56.927Z,94758.91
2023-04-20T09:05:28.855Z,94746.25
2023-04-20T09:07:58.810Z,94749.75
2023-04-20T09:10:27.364Z,94746.81
2023-04-20T09:12:54.361Z,94729.34
2023-04-20T09:15:29.038Z,94756.16
2023-04-20T09:17:56.420Z,94742.56
2023-04-20T09:20:34.584Z,94749.63
2023-04-20T09:23:15.641Z,94746.63
2023-04-20T09:25:45.326Z,94743.31
2023-04-20T09:28:13.845Z,94740.66
2023-04-20T09:30:43.291Z,94734.78
2023-04-20T09:33:14.667Z,94728.41
2023-04-20T09:35:43.186Z,94724.50
2023-04-20T09:38:11.545Z,94732.84
2023-04-20T09:40:38.617Z,94723.19
2023-04-20T09:43:19.178Z,94721.91
2023-04-20T09:45:46.434Z,94731.06
2023-04-20T09:48:19.245Z,94722.72
2023-04-20T09:50:49.639Z,94716.13
2023-04-20T09:53:18.739Z,94725.53
2023-04-20T09:55:49.943Z,94727.69
2023-04-20T09:58:21.730Z,94719.72
2023-04-20T10:00:49.435Z,94719.44
2023-04-20T10:03:18.744Z,94712.88
2023-04-20T10:05:46.384Z,94704.25
2023-04-20T10:08:13.672Z,94700.66
2023-04-20T10:10:51.115Z,94706.53
2023-04-20T10:13:22.158Z,94699.81
2023-04-20T10:15:49.333Z,94687.63
2023-04-20T10:18:23.654Z,94697.03
2023-04-20T10:20:51.895Z,94694.19
2023-04-20T10:23:20.196Z,94680.75
2023-04-20T10:26:01.352Z,94687.00
2023-04-20T10:28:42.096Z,94693.25
2023-04-20T10:31:13.379Z,94692.53
2023-04-20T10:33:56.534Z,94688.59
2023-04-20T10:36:36.913Z,94682.50
2023-04-20T10:39:21.167Z,94698.75
2023-04-20T10:41:55.957Z,94682.75
2023-04-20T10:44:22.926Z,94685.34
2023-04-20T10:46:51.040Z,94688.78
2023-04-20T10:49:18.919Z,94690.09
2023-04-20T10:51:50.911Z,94684.81
2023-04-20T10:54:18.494Z,94690.16
2023-04-20T10:56:51.876Z,94671.72
2023-04-20T10:59:21.489Z,94689.59
2023-04-20T11:01:49.765Z,94683.34
2023-04-20T11:04:18.828Z,94681.69
2023-04-20T11:06:48.600Z,94673.56
2023-04-20T11:09:25.041Z,94667.78
2023-04-20T11:12:09.285Z,94670.19
2023-04-20T11:14:38.711Z,94675.88
2023-04-20T11:17:07.203Z,94667.88
2023-04-20T11:19:36.080Z,94664.09
2023-04-20T11:22:04.724Z,94658.69
2023-04-20T11:24:34.153Z,94649.25
2023-04-20T11:27:03.156Z,94650.84
2023-04-20T11:29:35.893Z,94653.22
2023-04-20T11:32:05.814Z,94641.22
2023-04-20T11:34:37.369Z,94646.66
2023-04-20T11:37:05.918Z,94646.72
2023-04-20T11:39:33.846Z,94634.78
2023-04-20T11:42:00.790Z,94641.41
2023-04-20T11:44:27.740Z,94642.81
2023-04-20T11:46:57.353Z,94651.88
2023-04-20T11:49:25.861Z,94639.25
2023-04-20T11:51:52.938Z,94642.81
2023-04-20T11:54:19.953Z,94631.78
2023-04-20T11:56:46.903Z,94643.44
2023-04-20T11:59:20.632Z,94636.03
2023-04-20T12:01:48.365Z,94641.81
2023-04-20T12:04:16.732Z,94635.03
2023-04-20T12:06:44.323Z,94640.63
2023-04-20T12:09:11.522Z,94660.91
2023-04-20T12:11:38.542Z,94658.13
2023-04-20T12:14:05.448Z,94655.16
2023-04-20T12:16:32.502Z,94658.47
2023-04-20T12:18:59.724Z,94659.22
2023-04-20T12:21:27.573Z,94660.53
2023-04-20T12:23:54.493Z,94645.66
2023-04-20T12:26:22.664Z,94649.56
2023-04-20T12:28:52.419Z,94650.94
2023-04-20T12:31:19.561Z,94647.94
2023-04-20T12:33:46.481Z,94635.94
2023-04-20T12:36:13.400Z,94633.81
2023-04-20T12:38:40.264Z,94636.41
2023-04-20T12:41:07.310Z,94632.56
2023-04-20T12:43:34.237Z,94632.31
2023-04-20T12:46:01.394Z,94633.59
2023-04-20T12:48:28.405Z,94621.16
2023-04-20T12:50:55.412Z,94609.63
2023-04-20T12:53:22.348Z,94613.03
2023-04-20T12:55:54.991Z,94621.88
2023-04-20T12:58:24.727Z,94612.44
2023-04-20T13:00:51.765Z,94610.25
2023-04-20T13:03:19.004Z,94607.84
2023-04-20T13:05:46.566Z,94612.66
2023-04-20T13:08:13.471Z,94617.91
2023-04-20T13:10:42.916Z,94616.31
2023-04-20T13:13:11.403Z,94617.91
2023-04-20T13:15:39.383Z,94612.50
2023-04-20T13:18:06.886Z,94594.03
2023-04-20T13:20:33.924Z,94613.50
2023-04-20T13:23:01.958Z,94610.25
2023-04-20T13:25:30.256Z,94609.41
2023-04-20T13:27:57.991Z,94619.59
2023-04-20T13:30:25.276Z,94613.22
2023-04-20T13:32:53.004Z,94623.91
2023-04-20T13:35:20.098Z,94615.47
2023-04-20T13:37:47.081Z,94624.75
2023-04-20T13:40:14.328Z,94617.31
2023-04-20T13:42:41.297Z,94620.78
2023-04-20T13:45:09.109Z,94631.59
2023-04-20T13:47:38.037Z,94628.56
2023-04-20T13:50:06.482Z,94621.75
2023-04-20T13:52:33.543Z,94616.06
2023-04-20T13:55:03.264Z,94625.69
2023-04-20T13:57:31.903Z,94625.03
2023-04-20T14:00:01.119Z,94625.97
2023-04-20T14:02:33.118Z,94618.16
2023-04-20T14:05:00.249Z,94616.75
2023-04-20T14:07:27.238Z,94624.63
2023-04-20T14:09:56.744Z,94628.88
2023-04-20T14:12:23.697Z,94634.91
2023-04-20T14:14:50.766Z,94639.53
2023-04-20T14:17:17.671Z,94634.69
2023-04-20T14:19:44.634Z,94644.53
2023-04-20T14:22:11.673Z,94640.31
2023-04-20T14:24:38.585Z,94637.09
2023-04-20T14:27:05.524Z,94641.53
2023-04-20T14:29:32.477Z,94644.81
2023-04-20T14:31:59.591Z,94648.84
2023-04-20T14:34:26.761Z,94637.41
2023-04-20T14:36:53.658Z,94641.00
2023-04-20T14:39:23.643Z,94638.78
2023-04-20T14:41:50.664Z,94633.19
2023-04-20T14:44:17.905Z,94640.00
2023-04-20T14:46:45.137Z,94631.50
2023-04-20T14:49:12.310Z,94645.47
2023-04-20T14:51:39.249Z,94647.44
2023-04-20T14:54:06.146Z,94653.75
2023-04-20T14:56:34.360Z,94638.22
2023-04-20T14:59:01.506Z,94646.25
2023-04-20T15:01:28.519Z,94648.19
2023-04-20T15:03:55.820Z,94653.94
2023-04-20T15:06:23.047Z,94651.03
2023-04-20T15:08:50.533Z,94652.03
2023-04-20T15:11:17.507Z,94634.94
2023-04-20T15:13:44.624Z,94652.66
2023-04-20T15:16:11.701Z,94654.25
2023-04-20T15:18:38.813Z,94649.78
2023-04-20T15:21:06.021Z,94649.53
2023-04-20T15:23:32.965Z,94646.72
2023-04-20T15:25:59.899Z,94650.31
2023-04-20T15:28:27.191Z,94652.22
2023-04-20T15:30:54.250Z,94654.94
2023-04-20T15:33:21.271Z,94637.88
2023-04-20T15:35:48.292Z,94651.66
2023-04-20T15:38:15.239Z,94643.69
2023-04-20T15:40:42.181Z,94647.28
2023-04-20T15:43:09.107Z,94648.94
2023-04-20T15:45:36.199Z,94639.34
2023-04-20T15:48:03.259Z,94648.38
2023-04-20T15:50:31.023Z,94645.22
2023-04-20T15:52:57.934Z,94649.50
2023-04-20T15:57:35.611Z,94653.41
2023-04-20T16:06:35.970Z,94644.06
2023-04-20T16:18:04.484Z,94652.47
2023-04-20T16:20:31.453Z,94642.81
2023-04-20T16:25:12.599Z,94637.94
